Time;durP1;ratioP1;P1;durP2;ratioP2;P2;SDS_P1;SDS_P2;PMS_P1;PMS_P2;Temp;Humidity;BMP_temperature;BMP_pressure;BME280_temperature;BME280_humidity;BME280_pressure;Samples;Min_cycle;Max_cycle;Signal;HPM_P1;HPM_P2
2022/04/14 00:00:46;;;;;;;;;;;;;;;19.70;63.83;98805.22;2083349;28;20468;-52
2022/04/14 00:01:47;;;;;;;;;;;;;;;19.71;63.75;98800.66;2088374;28;20003;-52
2022/04/14 00:02:49;;;;;;;;;;;;;;;19.71;63.38;98804.19;2084849;28;19921;-53
2022/04/14 00:03:50;;;;;;;;;;;;;;;19.70;63.74;98796.34;2082639;28;19971;-51
2022/04/14 00:04:51;;;;;;;;;;;;;;;19.71;63.96;98797.97;2083528;28;19924;-51
2022/04/14 00:05:52;;;;;;;;;;;;;;;19.70;64.30;98801.72;2087557;28;19928;-50
2022/04/14 00:06:53;;;;;;;;;;;;;;;19.71;64.11;98798.81;2085611;28;19921;-52
2022/04/14 00:07:54;;;;;;;;;;;;;;;19.72;63.76;98800.44;2085239;28;24684;-53
2022/04/14 00:08:55;;;;;;;;;;;;;;;19.71;64.19;98801.50;2086101;28;19920;-53
2022/04/14 00:09:56;;;;;;;;;;;;;;;19.71;64.01;98801.50;2084655;28;19921;-52
2022/04/14 00:10:58;;;;;;;;;;;;;;;19.71;64.06;98803.38;2084427;28;19924;-50
2022/04/14 00:11:58;;;;;;;;;;;;;;;19.70;64.25;98799.84;2083431;28;20283;-50
2022/04/14 00:13:00;;;;;;;;;;;;;;;19.71;64.64;98797.97;2084653;28;20020;-52
2022/04/14 00:14:01;;;;;;;;;;;;;;;19.68;65.01;98798.41;2084099;28;19924;-50
2022/04/14 00:15:04;;;;;;;;;;;;;;;19.68;64.64;98798.41;2084420;28;19936;-49
2022/04/14 00:16:05;;;;;;;;;;;;;;;19.69;64.49;98806.25;2082371;28;19921;-53
2022/04/14 00:17:09;;;;;;;;;;;;;;;19.70;64.54;98802.53;2085387;28;19983;-53
2022/04/14 00:18:09;;;;;;;;;;;;;;;19.70;64.49;98807.09;2083107;28;19931;-54
2022/04/14 00:19:11;;;;;;;;;;;;;;;19.70;64.54;98807.94;2087811;28;19960;-52
2022/04/14 00:20:11;;;;;;;;;;;;;;;19.69;64.36;98811.63;2084973;28;19951;-49
2022/04/14 00:21:13;;;;;;;;;;;;;;;19.69;64.60;98811.63;2088647;28;20325;-54
2022/04/14 00:22:15;;;;;;;;;;;;;;;19.68;64.41;98809.97;2087301;28;19929;-51
2022/04/14 00:23:15;;;;;;;;;;;;;;;19.70;64.55;98812.47;2083153;28;19935;-52
2022/04/14 00:24:17;;;;;;;;;;;;;;;19.68;65.19;98809.97;2088050;28;20586;-53
2022/04/14 00:25:18;;;;;;;;;;;;;;;19.67;64.77;98813.72;2084192;28;19974;-54
2022/04/14 00:26:19;;;;;;;;;;;;;;;19.69;64.59;98811.63;2082780;28;19999;-53
2022/04/14 00:27:20;;;;;;;;;;;;;;;19.70;64.59;98816.00;2085925;28;20011;-52
2022/04/14 00:28:21;;;;;;;;;;;;;;;19.68;64.06;98818.06;2084936;28;20315;-53
2022/04/14 00:29:22;;;;;;;;;;;;;;;19.68;64.76;98809.16;2085455;28;20610;-51
2022/04/14 00:30:24;;;;;;;;;;;;;;;19.68;64.80;98812.69;2085953;28;19929;-48
2022/04/14 00:31:24;;;;;;;;;;;;;;;19.68;64.42;98809.97;2079335;28;19963;-52
2022/04/14 00:32:27;;;;;;;;;;;;;;;19.69;64.58;98810.81;2082571;28;19929;-49
2022/04/14 00:33:28;;;;;;;;;;;;;;;19.67;65.01;98804.78;2083778;28;20710;-48
2022/04/14 00:34:29;;;;;;;;;;;;;;;19.67;64.25;98808.34;2087525;28;19955;-50
2022/04/14 00:35:30;;;;;;;;;;;;;;;19.68;64.69;98809.16;2086013;28;19928;-51
2022/04/14 00:36:33;;;;;;;;;;;;;;;19.67;64.66;98805.66;2085601;28;19974;-52
2022/04/14 00:37:33;;;;;;;;;;;;;;;19.67;64.67;98808.34;2085404;28;19973;-53
2022/04/14 00:38:35;;;;;;;;;;;;;;;19.68;64.30;98809.97;2086400;28;19986;-50
2022/04/14 00:39:35;;;;;;;;;;;;;;;19.69;64.15;98806.25;2087431;28;19944;-52
2022/04/14 00:40:37;;;;;;;;;;;;;;;19.67;64.56;98805.66;2083177;28;20812;-52
2022/04/14 00:41:39;;;;;;;;;;;;;;;19.68;64.89;98806.47;2086343;28;19924;-49
2022/04/14 00:42:39;;;;;;;;;;;;;;;19.69;64.75;98814.31;2080157;28;19924;-50
2022/04/14 00:43:43;;;;;;;;;;;;;;;19.69;64.65;98806.25;2087280;28;20533;-53
2022/04/14 00:44:43;;;;;;;;;;;;;;;19.68;65.34;98804.59;2085577;28;20740;-50
2022/04/14 00:45:45;;;;;;;;;;;;;;;19.67;65.27;98805.66;2086077;28;19924;-47
2022/04/14 00:46:45;;;;;;;;;;;;;;;19.67;65.42;98802.97;2083904;28;19929;-51
2022/04/14 00:47:49;;;;;;;;;;;;;;;19.68;65.28;98801.09;2084992;28;20453;-52
2022/04/14 00:48:52;;;;;;;;;;;;;;;19.68;64.94;98803.78;2086345;28;21132;-49
2022/04/14 00:49:52;;;;;;;;;;;;;;;19.66;65.06;98803.16;2082846;28;19928;-50
2022/04/14 00:50:54;;;;;;;;;;;;;;;19.64;65.74;98800.66;2083273;28;20000;-49
2022/04/14 00:51:55;;;;;;;;;;;;;;;19.64;65.31;98801.47;2084001;28;20002;-49
2022/04/14 00:52:56;;;;;;;;;;;;;;;19.65;65.47;98804.97;2083479;28;19935;-52
2022/04/14 00:53:58;;;;;;;;;;;;;;;19.66;65.59;98803.97;2083973;28;22263;-47
2022/04/14 00:54:58;;;;;;;;;;;;;;;19.65;65.68;98799.59;2080130;28;20318;-53
2022/04/14 00:56:00;;;;;;;;;;;;;;;19.66;65.75;98803.16;2084155;28;19931;-51
2022/04/14 00:57:02;;;;;;;;;;;;;;;19.66;65.28;98806.66;2083580;28;19931;-49
2022/04/14 00:58:03;;;;;;;;;;;;;;;19.65;65.48;98804.97;2087120;28;19925;-51
2022/04/14 00:59:06;;;;;;;;;;;;;;;19.64;65.57;98808.72;2081189;28;20008;-51
2022/04/14 01:00:08;;;;;;;;;;;;;;;19.65;65.83;98807.69;2082932;28;19935;-51
2022/04/14 01:01:08;;;;;;;;;;;;;;;19.64;65.75;98806.84;2085317;28;20060;-49
2022/04/14 01:02:10;;;;;;;;;;;;;;;19.64;65.59;98814.09;2084214;28;20499;-50
2022/04/14 01:03:13;;;;;;;;;;;;;;;19.63;65.47;98809.75;2085150;28;20407;-46
2022/04/14 01:04:16;;;;;;;;;;;;;;;19.62;65.99;98800.03;2084611;28;20011;-48
2022/04/14 01:05:16;;;;;;;;;;;;;;;19.62;65.74;98808.09;2087500;28;19925;-49
2022/04/14 01:06:19;;;;;;;;;;;;;;;19.62;65.75;98808.09;2090228;28;19920;-49
2022/04/14 01:07:20;;;;;;;;;;;;;;;19.61;65.92;98806.41;2086617;28;19920;-49
2022/04/14 01:08:23;;;;;;;;;;;;;;;19.62;65.71;98810.78;2086811;28;19925;-49
2022/04/14 01:09:26;;;;;;;;;;;;;;;19.62;65.57;98816.16;2084489;28;19928;-49
2022/04/14 01:10:28;;;;;;;;;;;;;;;19.61;65.28;98818.03;2085151;28;19998;-51
2022/04/14 01:11:29;;;;;;;;;;;;;;;19.61;65.34;98814.50;2083772;28;20382;-50
2022/04/14 01:12:33;;;;;;;;;;;;;;;19.62;65.39;98819.69;2086143;28;19932;-49
2022/04/14 01:13:33;;;;;;;;;;;;;;;19.61;65.50;98820.72;2086992;28;19963;-49
2022/04/14 01:14:35;;;;;;;;;;;;;;;19.63;66.07;98817.81;2084336;28;19928;-49
2022/04/14 01:15:36;;;;;;;;;;;;;;;19.62;65.87;98824.22;2081908;28;19932;-49
2022/04/14 01:16:38;;;;;;;;;;;;;;;19.61;65.28;98823.41;2085838;28;19924;-52
2022/04/14 01:17:39;;;;;;;;;;;;;;;19.62;65.58;98825.06;2085360;28;20397;-47
2022/04/14 01:18:42;;;;;;;;;;;;;;;19.62;65.49;98821.53;2087307;28;20517;-48
2022/04/14 01:19:43;;;;;;;;;;;;;;;19.61;65.77;98830.63;2087148;28;19924;-47
2022/04/14 01:20:44;;;;;;;;;;;;;;;19.61;66.01;98825.25;2086055;28;20358;-48
2022/04/14 01:21:45;;;;;;;;;;;;;;;19.62;65.78;98825.06;2086092;28;19927;-50
2022/04/14 01:22:50;;;;;;;;;;;;;;;19.58;65.95;98829.19;2087657;28;19928;-50
2022/04/14 01:23:53;;;;;;;;;;;;;;;19.59;65.91;98822.78;2086376;28;19920;-52
2022/04/14 01:24:55;;;;;;;;;;;;;;;19.59;65.79;98821.97;2087240;28;19920;-48
2022/04/14 01:25:55;;;;;;;;;;;;;;;19.56;65.96;98817.81;2081639;28;20621;-51
2022/04/14 01:26:59;;;;;;;;;;;;;;;19.59;65.67;98824.66;2082743;28;20031;-51
2022/04/14 01:27:59;;;;;;;;;;;;;;;19.56;66.19;98822.38;2085630;28;19932;-48
2022/04/14 01:29:01;;;;;;;;;;;;;;;19.57;65.71;98818.63;2085431;28;20007;-52
2022/04/14 01:30:02;;;;;;;;;;;;;;;19.57;66.25;98822.16;2085228;28;19924;-49
2022/04/14 01:31:03;;;;;;;;;;;;;;;19.57;66.02;98819.47;2085570;28;20618;-50
2022/04/14 01:32:05;;;;;;;;;;;;;;;19.59;65.93;98827.34;2083091;28;20462;-52
2022/04/14 01:33:06;;;;;;;;;;;;;;;19.58;66.01;98825.66;2081251;28;19925;-51
2022/04/14 01:34:07;;;;;;;;;;;;;;;19.58;66.07;98828.34;2086579;28;20405;-48
2022/04/14 01:35:09;;;;;;;;;;;;;;;19.57;65.81;98826.72;2084435;28;19924;-50
2022/04/14 01:36:09;;;;;;;;;;;;;;;19.57;65.91;98830.22;2084363;28;20298;-50
2022/04/14 01:37:11;;;;;;;;;;;;;;;19.56;66.23;98825.88;2085068;28;20007;-51
2022/04/14 01:38:12;;;;;;;;;;;;;;;19.57;65.65;98832.09;2085662;28;20016;-49
2022/04/14 01:39:15;;;;;;;;;;;;;;;19.59;66.00;98824.66;2085377;28;19921;-51
2022/04/14 01:40:16;;;;;;;;;;;;;;;19.58;66.27;98828.34;2085502;28;19927;-47
2022/04/14 01:41:18;;;;;;;;;;;;;;;19.58;66.21;98825.66;2082271;28;20436;-49
2022/04/14 01:42:18;;;;;;;;;;;;;;;19.56;66.38;98822.38;2084339;28;19925;-49
2022/04/14 01:43:20;;;;;;;;;;;;;;;19.55;66.12;98818.00;2084789;28;20043;-49
2022/04/14 01:44:20;;;;;;;;;;;;;;;19.56;65.97;98817.81;2083615;28;19924;-48
2022/04/14 01:45:22;;;;;;;;;;;;;;;19.58;66.02;98817.59;2081610;28;19921;-52
2022/04/14 01:46:22;;;;;;;;;;;;;;;19.57;66.00;98815.94;2082273;28;20146;-49
2022/04/14 01:47:24;;;;;;;;;;;;;;;19.57;66.05;98813.25;2084233;28;20673;-50
2022/04/14 01:48:25;;;;;;;;;;;;;;;19.57;65.77;98813.25;2085534;28;19920;-50
2022/04/14 01:49:27;;;;;;;;;;;;;;;19.58;66.14;98814.91;2082750;28;19929;-52
2022/04/14 01:50:27;;;;;;;;;;;;;;;19.57;65.67;98816.78;2083363;28;19928;-53
2022/04/14 01:51:29;;;;;;;;;;;;;;;19.58;66.18;98812.22;2081933;28;19989;-52
2022/04/14 01:52:31;;;;;;;;;;;;;;;19.57;65.73;98813.25;2083428;28;19924;-49
2022/04/14 01:53:31;;;;;;;;;;;;;;;19.57;65.90;98815.94;2087086;28;19924;-52
2022/04/14 01:54:34;;;;;;;;;;;;;;;19.55;66.37;98810.75;2078854;28;20019;-50
2022/04/14 01:55:35;;;;;;;;;;;;;;;19.55;65.60;98815.31;2081163;28;20008;-50
2022/04/14 01:56:36;;;;;;;;;;;;;;;19.56;66.35;98817.81;2086307;28;20741;-52
2022/04/14 01:57:41;;;;;;;;;;;;;;;19.56;66.29;98809.75;2082345;28;19924;-47
2022/04/14 01:58:42;;;;;;;;;;;;;;;19.54;65.97;98810.97;2071658;28;19921;-50
2022/04/14 01:59:44;;;;;;;;;;;;;;;19.54;66.13;98813.66;2081102;28;19960;-51
2022/04/14 02:00:44;;;;;;;;;;;;;;;19.55;66.00;98809.94;2083009;28;19924;-52
2022/04/14 02:01:46;;;;;;;;;;;;;;;19.54;66.03;98809.13;2084963;28;19931;-51
2022/04/14 02:02:46;;;;;;;;;;;;;;;19.56;65.95;98814.31;2083923;28;19928;-51
2022/04/14 02:03:48;;;;;;;;;;;;;;;19.53;66.38;98809.31;2085394;28;20462;-52
2022/04/14 02:04:49;;;;;;;;;;;;;;;19.54;66.44;98811.81;2082096;28;20015;-52
2022/04/14 02:05:50;;;;;;;;;;;;;;;19.56;66.08;98808.91;2083860;28;19928;-50
2022/04/14 02:06:51;;;;;;;;;;;;;;;19.55;66.02;98807.25;2083979;28;20003;-50
2022/04/14 02:07:52;;;;;;;;;;;;;;;19.52;66.67;98808.47;2076529;28;19925;-52
2022/04/14 02:08:53;;;;;;;;;;;;;;;19.53;66.30;98803.91;2080009;28;19920;-55
2022/04/14 02:09:56;;;;;;;;;;;;;;;19.52;66.06;98811.16;2076037;28;19924;-56
2022/04/14 02:10:57;;;;;;;;;;;;;;;19.54;66.23;98808.28;2083360;28;19924;-51
2022/04/14 02:11:58;;;;;;;;;;;;;;;19.53;65.86;98806.63;2082506;28;20990;-55
2022/04/14 02:12:59;;;;;;;;;;;;;;;19.52;66.58;98813.03;2084375;28;19924;-52
2022/04/14 02:14:00;;;;;;;;;;;;;;;19.53;66.12;98809.31;2079448;28;20011;-56
2022/04/14 02:15:01;;;;;;;;;;;;;;;19.53;66.30;98807.47;2084721;28;19928;-57
2022/04/14 02:16:03;;;;;;;;;;;;;;;19.53;66.11;98809.31;2085181;28;20007;-57
2022/04/14 02:17:03;;;;;;;;;;;;;;;19.52;66.16;98811.16;2085050;28;19924;-54
2022/04/14 02:18:05;;;;;;;;;;;;;;;19.53;66.14;98809.31;2086401;28;20641;-52
2022/04/14 02:19:06;;;;;;;;;;;;;;;19.51;65.80;98809.53;2086115;28;20671;-53
2022/04/14 02:20:08;;;;;;;;;;;;;;;19.52;66.12;98807.66;2083870;28;19928;-51
2022/04/14 02:21:08;;;;;;;;;;;;;;;19.50;66.07;98812.41;2079129;28;19929;-53
2022/04/14 02:22:10;;;;;;;;;;;;;;;19.51;66.24;98808.69;2081836;28;19920;-60
2022/04/14 02:23:11;;;;;;;;;;;;;;;19.52;65.65;98813.88;2087965;28;20011;-54
2022/04/14 02:24:12;;;;;;;;;;;;;;;19.53;65.89;98809.31;2085217;28;20030;-57
2022/04/14 02:25:14;;;;;;;;;;;;;;;19.54;66.25;98808.28;2085169;28;19925;-58
2022/04/14 02:26:17;;;;;;;;;;;;;;;19.53;65.55;98806.63;2086845;28;19967;-59
2022/04/14 02:27:17;;;;;;;;;;;;;;;19.49;66.36;98810.75;2087376;28;19928;-59
2022/04/14 02:28:19;;;;;;;;;;;;;;;19.51;66.31;98808.69;2085572;28;19929;-60
2022/04/14 02:29:20;;;;;;;;;;;;;;;19.50;66.12;98810.56;2082767;28;19924;-54
2022/04/14 02:30:22;;;;;;;;;;;;;;;19.50;65.91;98812.41;2081607;28;19970;-54
2022/04/14 02:31:22;;;;;;;;;;;;;;;19.48;66.02;98809.94;2085396;28;20622;-57
2022/04/14 02:32:24;;;;;;;;;;;;;;;19.49;66.77;98811.59;2087795;28;19924;-56
2022/04/14 02:33:25;;;;;;;;;;;;;;;19.49;66.32;98806.19;2085948;28;19955;-57
2022/04/14 02:34:27;;;;;;;;;;;;;;;19.50;66.43;98812.41;2083928;28;19928;-55
2022/04/14 02:35:27;;;;;;;;;;;;;;;19.50;66.18;98809.72;2086739;28;19977;-52
2022/04/14 02:36:29;;;;;;;;;;;;;;;19.49;66.14;98810.75;2085283;28;19928;-53
2022/04/14 02:37:32;;;;;;;;;;;;;;;19.48;66.19;98814.50;2084352;28;19932;-53
2022/04/14 02:38:33;;;;;;;;;;;;;;;19.47;66.27;98808.25;2087608;28;20896;-52
2022/04/14 02:39:34;;;;;;;;;;;;;;;19.49;66.17;98810.75;2077716;28;21028;-53
2022/04/14 02:40:37;;;;;;;;;;;;;;;19.49;66.35;98811.59;2080447;28;19920;-54
2022/04/14 02:41:37;;;;;;;;;;;;;;;19.50;66.06;98812.41;2084454;28;19929;-49
2022/04/14 02:42:39;;;;;;;;;;;;;;;19.50;66.21;98809.72;2085054;28;19920;-53
2022/04/14 02:43:39;;;;;;;;;;;;;;;19.49;65.97;98805.38;2087495;28;20405;-53
2022/04/14 02:44:41;;;;;;;;;;;;;;;19.49;66.15;98811.59;2085475;28;19927;-54
2022/04/14 02:45:41;;;;;;;;;;;;;;;19.50;66.32;98809.72;2080414;28;19921;-51
2022/04/14 02:46:43;;;;;;;;;;;;;;;19.48;66.19;98804.56;2086643;28;19936;-52
2022/04/14 02:47:43;;;;;;;;;;;;;;;19.46;66.13;98806.63;2089845;28;19920;-51
2022/04/14 02:48:45;;;;;;;;;;;;;;;19.47;66.13;98807.44;2081400;28;19951;-52
2022/04/14 02:49:45;;;;;;;;;;;;;;;19.47;66.31;98802.06;2086460;28;19932;-54
2022/04/14 02:50:47;;;;;;;;;;;;;;;19.45;66.29;98809.53;2086090;28;20423;-51
2022/04/14 02:51:48;;;;;;;;;;;;;;;19.43;66.13;98805.16;2086114;28;20298;-54
2022/04/14 02:52:50;;;;;;;;;;;;;;;19.45;66.14;98817.59;2080261;28;20009;-53
2022/04/14 02:53:53;;;;;;;;;;;;;;;19.45;66.14;98818.41;2086496;28;19927;-52
2022/04/14 02:54:54;;;;;;;;;;;;;;;19.45;66.33;98809.53;2088365;28;19991;-52
2022/04/14 02:55:56;;;;;;;;;;;;;;;19.43;66.43;98807.84;2088000;28;20015;-54
2022/04/14 02:56:58;;;;;;;;;;;;;;;19.43;66.07;98807.84;2085554;28;19921;-51
2022/04/14 02:57:58;;;;;;;;;;;;;;;19.45;66.41;98813.03;2084684;28;20013;-51
2022/04/14 02:59:00;;;;;;;;;;;;;;;19.45;65.94;98812.22;2080166;28;19928;-49
2022/04/14 03:00:00;;;;;;;;;;;;;;;19.43;66.55;98813.22;2083659;28;19920;-52
2022/04/14 03:01:02;;;;;;;;;;;;;;;19.43;65.94;98813.22;2087716;28;19933;-53
2022/04/14 03:02:03;;;;;;;;;;;;;;;19.47;66.16;98815.50;2084490;28;19921;-49
2022/04/14 03:03:04;;;;;;;;;;;;;;;19.43;66.17;98807.03;2085816;28;19924;-51
2022/04/14 03:04:05;;;;;;;;;;;;;;;19.43;66.36;98810.53;2087016;28;20011;-50
2022/04/14 03:05:07;;;;;;;;;;;;;;;19.41;66.16;98809.91;2083844;28;19927;-48
2022/04/14 03:06:08;;;;;;;;;;;;;;;19.42;66.13;98810.75;2083919;28;19933;-48
2022/04/14 03:07:12;;;;;;;;;;;;;;;19.42;66.25;98810.75;2087957;28;20314;-49
2022/04/14 03:08:12;;;;;;;;;;;;;;;19.41;66.18;98809.91;2083509;28;19920;-48
2022/04/14 03:09:14;;;;;;;;;;;;;;;19.40;66.17;98804.75;2083551;28;20306;-47
2022/04/14 03:10:15;;;;;;;;;;;;;;;19.41;66.12;98804.53;2084672;28;19975;-53
2022/04/14 03:11:17;;;;;;;;;;;;;;;19.41;65.95;98812.59;2083106;28;19920;-51
2022/04/14 03:12:18;;;;;;;;;;;;;;;19.41;66.09;98807.22;2083131;28;19935;-52
2022/04/14 03:13:20;;;;;;;;;;;;;;;19.39;65.86;98809.31;2083114;28;19970;-52
2022/04/14 03:14:21;;;;;;;;;;;;;;;19.38;66.25;98818.38;2085001;28;19924;-51
2022/04/14 03:15:22;;;;;;;;;;;;;;;19.40;65.86;98810.97;2086404;28;20364;-50
2022/04/14 03:16:23;;;;;;;;;;;;;;;19.39;65.91;98812.00;2085200;28;19925;-53
2022/04/14 03:17:24;;;;;;;;;;;;;;;19.37;65.92;98808.69;2086966;28;20264;-51
2022/04/14 03:18:26;;;;;;;;;;;;;;;19.37;66.11;98808.69;2087911;28;19928;-51
2022/04/14 03:19:26;;;;;;;;;;;;;;;19.36;66.14;98808.88;2083813;28;19965;-51
2022/04/14 03:20:28;;;;;;;;;;;;;;;19.35;66.26;98809.91;2082241;28;20001;-48
2022/04/14 03:21:28;;;;;;;;;;;;;;;19.33;66.29;98815.47;2085250;28;20432;-50
2022/04/14 03:22:32;;;;;;;;;;;;;;;19.32;66.12;98821.91;2084848;28;20011;-52
2022/04/14 03:23:34;;;;;;;;;;;;;;;19.35;66.07;98813.41;2084613;28;19963;-52
2022/04/14 03:24:34;;;;;;;;;;;;;;;19.34;66.36;98813.66;2087495;28;19924;-52
2022/04/14 03:25:36;;;;;;;;;;;;;;;19.34;65.91;98811.78;2084196;28;20828;-50
2022/04/14 03:26:38;;;;;;;;;;;;;;;19.34;66.05;98814.47;2086474;28;19924;-49
2022/04/14 03:27:39;;;;;;;;;;;;;;;19.36;65.77;98812.41;2087395;28;20539;-49
2022/04/14 03:28:41;;;;;;;;;;;;;;;19.36;65.77;98812.41;2086563;28;19975;-55
2022/04/14 03:29:41;;;;;;;;;;;;;;;19.35;65.97;98805.34;2083951;28;20813;-54
2022/04/14 03:30:43;;;;;;;;;;;;;;;19.35;65.46;98802.66;2089073;28;19996;-51
2022/04/14 03:31:44;;;;;;;;;;;;;;;19.35;65.98;98799.97;2083622;28;20011;-54
2022/04/14 03:32:46;;;;;;;;;;;;;;;19.34;65.81;98803.72;2087292;28;19932;-50
2022/04/14 03:33:47;;;;;;;;;;;;;;;19.34;66.00;98797.50;2084274;28;20741;-52
2022/04/14 03:34:48;;;;;;;;;;;;;;;19.32;65.98;98800.38;2085068;28;20031;-52
2022/04/14 03:35:49;;;;;;;;;;;;;;;19.33;65.92;98796.66;2085480;28;20498;-53
2022/04/14 03:36:50;;;;;;;;;;;;;;;19.33;65.98;98796.66;2082350;28;19924;-51
2022/04/14 03:37:51;;;;;;;;;;;;;;;19.33;65.67;98791.28;2082277;28;19921;-50
2022/04/14 03:38:52;;;;;;;;;;;;;;;19.35;65.89;98789.22;2084528;28;19986;-51
2022/04/14 03:39:53;;;;;;;;;;;;;;;19.33;65.59;98785.06;2087123;28;19920;-52
2022/04/14 03:40:59;;;;;;;;;;;;;;;19.31;65.75;98790.66;2088702;28;20534;-54
2022/04/14 03:42:01;;;;;;;;;;;;;;;19.33;65.66;98791.28;2084563;28;19920;-55
2022/04/14 03:43:02;;;;;;;;;;;;;;;19.31;65.86;98787.97;2083027;28;19971;-54
2022/04/14 03:44:03;;;;;;;;;;;;;;;19.33;65.69;98785.91;2083878;28;19928;-52
2022/04/14 03:45:05;;;;;;;;;;;;;;;19.33;65.68;98785.91;2083137;28;20279;-54
2022/04/14 03:46:06;;;;;;;;;;;;;;;19.32;65.48;98792.31;2084096;28;19921;-55
2022/04/14 03:47:08;;;;;;;;;;;;;;;19.34;65.40;98792.13;2086406;28;19924;-54
2022/04/14 03:48:09;;;;;;;;;;;;;;;19.33;65.75;98793.97;2084158;28;19930;-55
2022/04/14 03:49:11;;;;;;;;;;;;;;;19.32;65.86;98789.63;2088723;28;20555;-51
2022/04/14 03:50:12;;;;;;;;;;;;;;;19.29;66.30;98791.91;2085453;28;19962;-54
2022/04/14 03:51:14;;;;;;;;;;;;;;;19.30;65.57;98791.69;2087948;28;19947;-52
2022/04/14 03:52:15;;;;;;;;;;;;;;;19.31;65.92;98796.06;2081512;28;19971;-52
2022/04/14 03:53:17;;;;;;;;;;;;;;;19.29;65.67;98799.97;2083766;28;19928;-52
2022/04/14 03:54:17;;;;;;;;;;;;;;;19.29;65.67;98799.97;2082975;28;19941;-53
2022/04/14 03:55:19;;;;;;;;;;;;;;;19.29;65.81;98799.97;2082804;28;19930;-51
2022/04/14 03:56:19;;;;;;;;;;;;;;;19.28;66.06;98793.78;2084378;28;20427;-52
2022/04/14 03:57:22;;;;;;;;;;;;;;;19.28;66.05;98795.59;2085567;28;19927;-52
2022/04/14 03:58:23;;;;;;;;;;;;;;;19.28;66.07;98792.91;2085772;28;20543;-51
2022/04/14 03:59:24;;;;;;;;;;;;;;;19.28;65.77;98792.91;2083530;28;19920;-56
2022/04/14 04:00:25;;;;;;;;;;;;;;;19.28;65.62;98793.78;2085866;28;19928;-53
2022/04/14 04:01:27;;;;;;;;;;;;;;;19.27;65.78;98793.97;2086273;28;19924;-52
2022/04/14 04:02:28;;;;;;;;;;;;;;;19.26;65.76;98798.53;2085420;28;20003;-52
2022/04/14 04:03:29;;;;;;;;;;;;;;;19.26;65.73;98795.00;2085703;28;20409;-52
2022/04/14 04:04:31;;;;;;;;;;;;;;;19.24;65.91;98797.88;2085418;28;19952;-50
2022/04/14 04:05:32;;;;;;;;;;;;;;;19.24;65.94;98792.50;2083521;28;20019;-52
2022/04/14 04:06:33;;;;;;;;;;;;;;;19.24;65.90;98789.81;2085561;28;19927;-53
2022/04/14 04:07:34;;;;;;;;;;;;;;;19.25;65.93;98799.56;2080469;28;20110;-53
2022/04/14 04:08:35;;;;;;;;;;;;;;;19.24;66.45;98794.38;2085487;28;20477;-53
2022/04/14 04:09:38;;;;;;;;;;;;;;;19.25;65.78;98796.03;2083006;28;19928;-51
2022/04/14 04:10:40;;;;;;;;;;;;;;;19.24;66.11;98791.69;2087072;28;19924;-54
2022/04/14 04:11:41;;;;;;;;;;;;;;;19.25;66.09;98799.56;2085185;28;19921;-52
2022/04/14 04:12:44;;;;;;;;;;;;;;;19.25;66.21;98799.56;2087427;28;19932;-52
2022/04/14 04:13:44;;;;;;;;;;;;;;;19.25;66.36;98796.88;2085710;28;20043;-52
2022/04/14 04:14:46;;;;;;;;;;;;;;;19.27;65.12;98802.03;2086076;28;19920;-52
2022/04/14 04:15:48;;;;;;;;;;;;;;;19.31;66.30;98804.13;2089246;28;20570;-49
2022/04/14 04:16:49;;;;;;;;;;;;;;;19.33;65.89;98809.28;2086901;28;20031;-52
2022/04/14 04:17:51;;;;;;;;;;;;;;;19.35;66.04;98810.72;2086488;28;19935;-52
2022/04/14 04:18:51;;;;;;;;;;;;;;;19.39;66.22;98811.19;2088320;28;19920;-52
2022/04/14 04:19:53;;;;;;;;;;;;;;;19.40;65.16;98810.97;2086838;28;19921;-51
2022/04/14 04:20:53;;;;;;;;;;;;;;;19.42;65.58;98808.06;2082603;28;20414;-54
2022/04/14 04:21:55;;;;;;;;;;;;;;;19.47;65.15;98810.13;2081402;28;19928;-54
2022/04/14 04:22:55;;;;;;;;;;;;;;;19.48;64.45;98811.81;2084317;28;19921;-52
2022/04/14 04:23:57;;;;;;;;;;;;;;;19.46;65.40;98806.63;2085615;28;19924;-55
2022/04/14 04:24:59;;;;;;;;;;;;;;;19.53;65.59;98817.38;2083092;28;20424;-54
2022/04/14 04:26:00;;;;;;;;;;;;;;;19.50;64.55;98813.25;2082150;28;21009;-54
2022/04/14 04:27:01;;;;;;;;;;;;;;;19.51;64.12;98816.78;2085318;28;20011;-53
2022/04/14 04:28:04;;;;;;;;;;;;;;;19.51;63.90;98819.47;2083846;28;19921;-54
2022/04/14 04:29:05;;;;;;;;;;;;;;;19.48;63.69;98817.19;2083172;28;19928;-53
2022/04/14 04:30:07;;;;;;;;;;;;;;;19.48;63.97;98819.88;2081830;28;19928;-49
2022/04/14 04:31:07;;;;;;;;;;;;;;;19.48;63.34;98812.63;2083964;28;20007;-56
2022/04/14 04:32:09;;;;;;;;;;;;;;;19.49;64.47;98816.13;2082744;28;19929;-53
2022/04/14 04:33:10;;;;;;;;;;;;;;;19.48;64.05;98819.88;2082912;28;20418;-57
2022/04/14 04:34:11;;;;;;;;;;;;;;;19.49;64.20;98814.28;2085632;28;19931;-55
2022/04/14 04:35:13;;;;;;;;;;;;;;;19.50;64.12;98820.47;2086083;28;20011;-55
2022/04/14 04:36:13;;;;;;;;;;;;;;;19.49;64.24;98816.13;2083612;28;19981;-50
2022/04/14 04:37:15;;;;;;;;;;;;;;;19.49;64.10;98819.66;2080436;28;20365;-55
2022/04/14 04:38:15;;;;;;;;;;;;;;;19.49;64.46;98816.13;2080621;28;19936;-54
2022/04/14 04:39:17;;;;;;;;;;;;;;;19.49;63.40;98811.59;2081650;28;21035;-53
2022/04/14 04:40:18;;;;;;;;;;;;;;;19.50;64.36;98815.09;2083206;28;19920;-54
2022/04/14 04:41:20;;;;;;;;;;;;;;;19.49;63.61;98803.50;2081527;28;20055;-52
2022/04/14 04:42:20;;;;;;;;;;;;;;;19.50;64.19;98813.25;2086921;28;19920;-55
2022/04/14 04:43:23;;;;;;;;;;;;;;;19.51;64.53;98812.22;2081890;28;20049;-51
2022/04/14 04:44:24;;;;;;;;;;;;;;;19.51;63.80;98811.41;2085602;28;20378;-54
2022/04/14 04:45:25;;;;;;;;;;;;;;;19.51;63.36;98804.16;2085390;28;19929;-53
2022/04/14 04:46:26;;;;;;;;;;;;;;;19.51;63.83;98814.09;2086749;28;19924;-56
2022/04/14 04:47:27;;;;;;;;;;;;;;;19.51;63.65;98814.09;2086403;28;19929;-55
2022/04/14 04:48:28;;;;;;;;;;;;;;;19.52;63.88;98815.72;2081726;28;19928;-52
2022/04/14 04:49:29;;;;;;;;;;;;;;;19.53;64.18;98812.00;2081343;28;19924;-52
2022/04/14 04:50:30;;;;;;;;;;;;;;;19.49;64.35;98819.66;2079933;28;19927;-53
2022/04/14 04:51:31;;;;;;;;;;;;;;;19.51;63.31;98819.47;2076759;28;19932;-50
2022/04/14 04:52:32;;;;;;;;;;;;;;;19.51;62.28;98819.47;2083342;28;22631;-54
2022/04/14 04:53:34;;;;;;;;;;;;;;;19.49;63.83;98816.97;2085449;28;19920;-52
2022/04/14 04:54:34;;;;;;;;;;;;;;;19.52;63.79;98823.81;2087096;28;20919;-56
2022/04/14 04:55:36;;;;;;;;;;;;;;;19.52;63.61;98821.94;2084022;28;19925;-51
2022/04/14 04:56:36;;;;;;;;;;;;;;;19.52;63.57;98818.41;2081136;28;19936;-56
2022/04/14 04:57:38;;;;;;;;;;;;;;;19.51;63.66;98820.28;2083940;28;22261;-52
2022/04/14 04:58:40;;;;;;;;;;;;;;;19.51;62.51;98827.53;2084759;28;19936;-53
2022/04/14 04:59:41;;;;;;;;;;;;;;;19.52;63.90;98826.50;2081581;28;20458;-53
2022/04/14 05:00:44;;;;;;;;;;;;;;;19.49;63.51;98822.34;2082709;28;19962;-54
2022/04/14 05:01:45;;;;;;;;;;;;;;;19.50;62.81;98823.16;2083953;28;19928;-51
2022/04/14 05:02:46;;;;;;;;;;;;;;;19.50;62.65;98820.47;2085562;28;19931;-53
2022/04/14 05:03:48;;;;;;;;;;;;;;;19.50;63.68;98829.41;2086288;28;20806;-52
2022/04/14 05:04:48;;;;;;;;;;;;;;;19.49;62.98;98826.91;2085556;28;19920;-52
2022/04/14 05:05:50;;;;;;;;;;;;;;;19.51;63.83;98824.84;2084472;28;20691;-55
2022/04/14 05:06:50;;;;;;;;;;;;;;;19.51;63.48;98830.22;2082835;28;20089;-53
2022/04/14 05:07:52;;;;;;;;;;;;;;;19.52;62.75;98826.50;2083163;28;19929;-51
2022/04/14 05:08:53;;;;;;;;;;;;;;;19.51;62.61;98824.84;2083922;28;20359;-51
2022/04/14 05:09:54;;;;;;;;;;;;;;;19.51;63.11;98824.84;2082452;28;19924;-49
2022/04/14 05:10:55;;;;;;;;;;;;;;;19.53;63.69;98829.00;2083914;28;19974;-52
2022/04/14 05:11:57;;;;;;;;;;;;;;;19.54;62.88;98822.56;2083505;28;19924;-51
2022/04/14 05:12:57;;;;;;;;;;;;;;;19.54;62.42;98830.63;2085130;28;21117;-55
2022/04/14 05:14:00;;;;;;;;;;;;;;;19.54;63.46;98832.50;2083001;28;19928;-54
2022/04/14 05:15:01;;;;;;;;;;;;;;;19.54;62.27;98836.00;2084895;28;20523;-51
2022/04/14 05:16:04;;;;;;;;;;;;;;;19.57;62.80;98840.16;2085766;28;19927;-53
2022/04/14 05:17:05;;;;;;;;;;;;;;;19.56;63.07;98827.75;2086625;28;20423;-54
2022/04/14 05:18:07;;;;;;;;;;;;;;;19.54;63.07;98835.19;2082488;28;19929;-56
2022/04/14 05:19:07;;;;;;;;;;;;;;;19.56;62.67;98838.50;2084143;28;19925;-53
2022/04/14 05:20:09;;;;;;;;;;;;;;;19.56;62.57;98833.13;2082239;28;19924;-53